Time;durP1;ratioP1;P1;durP2;ratioP2;P2;SDS_P1;SDS_P2;PMS_P1;PMS_P2;Temp;Humidity;BMP_temperature;BMP_pressure;BME280_temperature;BME280_humidity;BME280_pressure;Samples;Min_cycle;Max_cycle;Signal;HPM_P1;HPM_P2
2024/04/01 00:00:34;;;;;;;31.98;7.05;;;538.10;1100.80;;;;;;5094435;28;20051;-71
2024/04/01 00:03:00;;;;;;;39.33;6.18;;;538.10;1100.80;;;;;;5089730;28;20389;-74
2024/04/01 00:05:26;;;;;;;33.08;6.78;;;538.10;1100.80;;;;;;5098373;28;20020;-75
2024/04/01 00:07:52;;;;;;;25.15;6.78;;;538.10;1100.80;;;;;;5088164;28;20378;-74
2024/04/01 00:10:19;;;;;;;26.45;7.20;;;538.10;1100.80;;;;;;5098784;28;20024;-74
2024/04/01 00:12:45;;;;;;;25.73;8.15;;;538.00;1100.80;;;;;;5084353;28;20036;-74
2024/04/01 00:15:10;;;;;;;35.35;6.85;;;538.00;1100.80;;;;;;5080399;28;20387;-74
2024/04/01 00:17:36;;;;;;;23.50;5.78;;;537.90;1126.40;;;;;;5076419;28;20073;-73
2024/04/01 00:20:03;;;;;;;26.17;6.40;;;537.90;1126.40;;;;;;5072115;28;20151;-73
2024/04/01 00:22:29;;;;;;;31.80;6.57;;;538.00;1126.40;;;;;;5069043;28;20028;-75
2024/04/01 00:24:54;;;;;;;22.55;5.97;;;537.90;1126.40;;;;;;5069956;28;20032;-75
2024/04/01 00:27:20;;;;;;;33.58;7.32;;;537.90;1126.40;;;;;;5071173;28;20381;-74
2024/04/01 00:29:46;;;;;;;23.88;7.05;;;537.80;1126.40;;;;;;5066352;28;20017;-75
2024/04/01 00:32:12;;;;;;;25.38;6.55;;;537.80;1126.40;;;;;;5073090;28;20088;-75
2024/04/01 00:34:38;;;;;;;24.65;4.93;;;537.90;1126.40;;;;;;5076648;28;20036;-75
2024/04/01 00:37:04;;;;;;;28.77;6.20;;;537.90;1126.40;;;;;;5082096;28;20111;-76
2024/04/01 00:39:29;;;;;;;28.55;6.30;;;537.90;1126.40;;;;;;5072617;28;20039;-74
2024/04/01 00:41:55;;;;;;;31.38;6.95;;;538.00;1100.80;;;;;;5073440;28;20048;-73
2024/04/01 00:44:21;;;;;;;27.80;6.25;;;538.00;1100.80;;;;;;5060741;28;20043;-75
2024/04/01 00:46:47;;;;;;;30.08;6.30;;;538.00;1100.80;;;;;;5060544;28;20043;-74
2024/04/01 00:49:13;;;;;;;28.45;6.78;;;538.00;1126.40;;;;;;5083861;28;20024;-74
2024/04/01 00:51:39;;;;;;;21.67;6.47;;;537.90;1126.40;;;;;;5053328;28;20028;-74
2024/04/01 00:54:07;;;;;;;27.52;6.43;;;537.80;1152.00;;;;;;5065199;28;20496;-74
2024/04/01 00:56:34;;;;;;;26.75;5.28;;;537.60;1177.60;;;;;;5073906;28;20032;-75
2024/04/01 00:59:03;;;;;;;31.55;6.07;;;512.80;1177.60;;;;;;5067964;28;20028;-76
2024/04/01 01:01:30;;;;;;;26.45;5.93;;;;;;;;;;5070476;28;20085;-74
2024/04/01 01:03:57;;;;;;;24.63;5.70;;;512.00;1280.00;;;;;;5068840;28;20100;-74
2024/04/01 01:06:25;;;;;;;36.22;5.60;;;487.30;1305.60;;;;;;5077927;28;20428;-74
2024/04/01 01:08:51;;;;;;;20.90;5.88;;;487.10;1254.40;;;;;;5064756;28;20087;-76
2024/04/01 01:11:17;;;;;;;30.48;6.72;;;487.10;1254.40;;;;;;5077401;28;20412;-75
2024/04/01 01:13:43;;;;;;;28.17;5.90;;;487.10;1254.40;;;;;;5041062;28;1342144;-74
2024/04/01 01:16:09;;;;;;;31.70;6.38;;;487.00;1254.40;;;;;;5096837;28;20066;-76
2024/04/01 01:18:36;;;;;;;34.92;6.95;;;487.00;1254.40;;;;;;5094822;28;20024;-74
2024/04/01 01:21:02;;;;;;;29.48;6.05;;;487.00;1228.80;;;;;;5094349;28;20055;-77
2024/04/01 01:23:29;;;;;;;25.25;7.72;;;487.00;1254.40;;;;;;5094485;28;20017;-74
2024/04/01 01:25:55;;;;;;;27.35;5.45;;;486.90;1254.40;;;;;;5094732;28;20074;-74
2024/04/01 01:28:21;;;;;;;26.55;6.28;;;486.80;1254.40;;;;;;5094677;28;20024;-75
2024/04/01 01:30:47;;;;;;;34.45;6.55;;;486.90;1228.80;;;;;;5094676;28;20024;-76
2024/04/01 01:33:13;;;;;;;26.02;6.00;;;486.90;1228.80;;;;;;5093819;28;20366;-74
2024/04/01 01:35:39;;;;;;;24.17;5.68;;;486.90;1228.80;;;;;;5094490;28;20024;-75
2024/04/01 01:38:06;;;;;;;17.80;4.78;;;486.80;1228.80;;;;;;5094587;28;20021;-75
2024/04/01 01:40:32;;;;;;;25.92;6.57;;;487.00;1228.80;;;;;;5094450;28;20016;-75
2024/04/01 01:42:58;;;;;;;21.58;6.57;;;487.00;1228.80;;;;;;5094508;28;20028;-77
2024/04/01 01:45:24;;;;;;;19.83;5.95;;;487.00;1228.80;;;;;;5094557;28;20121;-74
2024/04/01 01:47:50;;;;;;;25.45;6.32;;;487.00;1228.80;;;;;;5094350;28;20473;-75
2024/04/01 01:50:16;;;;;;;23.95;6.85;;;486.90;1228.80;;;;;;5094252;28;20055;-75
2024/04/01 01:52:42;;;;;;;27.00;6.53;;;487.00;1228.80;;;;;;5094465;28;20032;-74
2024/04/01 01:55:07;;;;;;;21.90;6.78;;;486.90;1228.80;;;;;;5103712;28;20031;-76
2024/04/01 02:02:34;;;;;;;19.73;5.63;;;486.90;1228.80;;;;;;4654913;23;20054;-74
2024/04/01 02:05:00;;;;;;;22.90;5.95;;;486.90;1254.40;;;;;;5032700;28;20025;-74
2024/04/01 02:07:26;;;;;;;24.33;6.38;;;486.90;1254.40;;;;;;5014644;28;20017;-73
2024/04/01 02:09:51;;;;;;;28.52;7.05;;;486.90;1254.40;;;;;;5032243;28;20026;-74
2024/04/01 02:12:17;;;;;;;27.33;6.72;;;486.90;1254.40;;;;;;5032530;28;20026;-74
2024/04/01 02:14:46;;;;;;;30.58;5.55;;;486.80;1254.40;;;;;;5032645;28;20029;-75
2024/04/01 02:17:12;;;;;;;26.80;6.68;;;486.80;1254.40;;;;;;5014258;28;20033;-74
2024/04/01 02:19:38;;;;;;;28.35;7.05;;;486.70;1254.40;;;;;;5032471;28;20071;-74
2024/04/01 02:22:12;;;;;;;23.98;5.68;;;486.70;1280.00;;;;;;5032320;28;20487;-73
2024/04/01 02:24:41;;;;;;;29.08;6.75;;;486.60;1280.00;;;;;;5014363;28;20053;-75
2024/04/01 02:27:09;;;;;;;33.10;7.82;;;486.50;1305.60;;;;;;5014941;28;20025;-74
2024/04/01 02:29:35;;;;;;;23.60;7.85;;;486.70;1305.60;;;;;;5001614;28;20116;-74
2024/04/01 02:32:01;;;;;;;30.45;8.45;;;486.50;1305.60;;;;;;5031856;28;20025;-74
2024/04/01 02:34:27;;;;;;;20.50;5.85;;;486.40;1305.60;;;;;;5018187;28;20033;-73
2024/04/01 02:36:54;;;;;;;26.02;6.30;;;486.40;1305.60;;;;;;5032041;28;20486;-74
2024/04/01 02:39:24;;;;;;;23.08;6.05;;;486.40;1305.60;;;;;;5032298;28;20529;-74
2024/04/01 02:41:50;;;;;;;28.95;5.88;;;;;;;;;;4992718;28;20036;-74
2024/04/01 02:44:17;;;;;;;28.00;7.10;;;;;;;;;;5029224;28;20029;-74
2024/04/01 02:46:43;;;;;;;33.30;6.90;;;;;;;;;;5014348;28;20120;-77
2024/04/01 02:49:10;;;;;;;23.05;6.57;;;486.40;1280.00;;;;;;5013977;28;20441;-74
2024/04/01 02:51:36;;;;;;;25.15;5.70;;;486.50;1280.00;;;;;;5031986;28;20022;-74
2024/04/01 02:54:03;;;;;;;19.17;5.32;;;486.60;1280.00;;;;;;5031737;28;20090;-74
2024/04/01 02:56:29;;;;;;;25.42;5.47;;;;;;;;;;5014325;28;20092;-74
2024/04/01 02:58:55;;;;;;;23.77;6.05;;;486.60;1280.00;;;;;;5013934;28;20026;-74
2024/04/01 03:01:22;;;;;;;21.33;7.00;;;;;;;;;;5031768;28;20025;-74
2024/04/01 03:03:48;;;;;;;28.35;5.85;;;;;;;;;;5031273;28;20105;-74
2024/04/01 03:06:14;;;;;;;32.97;7.50;;;486.60;1280.00;;;;;;5031801;28;20033;-73
2024/04/01 03:08:41;;;;;;;36.63;6.85;;;;;;;;;;5031279;28;20111;-74
2024/04/01 03:11:06;;;;;;;24.35;6.22;;;486.50;1305.60;;;;;;5031636;28;20014;-74
2024/04/01 03:13:32;;;;;;;28.65;8.23;;;486.40;1305.60;;;;;;5013408;28;20109;-74
2024/04/01 03:15:58;;;;;;;30.65;7.45;;;486.40;1305.60;;;;;;5031675;28;20021;-74
2024/04/01 03:18:25;;;;;;;30.08;6.28;;;486.40;1331.20;;;;;;5031656;28;20494;-73
2024/04/01 03:20:52;;;;;;;25.75;6.68;;;486.40;1331.20;;;;;;5031880;28;20443;-74
2024/04/01 03:23:18;;;;;;;27.08;6.35;;;486.40;1331.20;;;;;;5031439;28;20045;-73
2024/04/01 03:25:51;;;;;;;22.92;7.05;;;461.70;1331.20;;;;;;5031894;28;20393;-73
2024/04/01 03:28:17;;;;;;;31.88;7.35;;;461.60;1331.20;;;;;;5031534;28;20033;-73
2024/04/01 03:30:43;;;;;;;32.80;6.25;;;461.50;1356.80;;;;;;5031443;28;20554;-74
2024/04/01 03:33:12;;;;;;;31.55;6.72;;;461.50;1356.80;;;;;;5013821;28;20124;-74
2024/04/01 03:35:41;;;;;;;25.02;6.30;;;461.40;1356.80;;;;;;5031469;28;20565;-74
2024/04/01 03:38:08;;;;;;;26.20;5.90;;;461.40;1382.40;;;;;;5031031;28;20041;-74
2024/04/01 03:40:42;;;;;;;26.83;6.90;;;461.40;1382.40;;;;;;5031301;28;20423;-74
2024/04/01 03:43:09;;;;;;;33.78;6.00;;;461.40;1356.80;;;;;;5031115;28;20025;-74
2024/04/01 03:45:36;;;;;;;29.13;7.07;;;461.30;1356.80;;;;;;5031302;28;20017;-74
2024/04/01 03:48:02;;;;;;;22.75;5.88;;;461.40;1356.80;;;;;;5030987;28;20024;-72
2024/04/01 03:50:28;;;;;;;26.50;6.00;;;461.30;1356.80;;;;;;5013692;28;20025;-74
2024/04/01 03:52:54;;;;;;;24.85;6.70;;;461.40;1356.80;;;;;;5031323;28;20048;-74
2024/04/01 03:55:20;;;;;;;32.35;7.57;;;461.30;1382.40;;;;;;5031718;28;20091;-73
2024/04/01 03:57:46;;;;;;;25.48;5.43;;;461.30;1382.40;;;;;;5034948;28;20466;-73
2024/04/01 04:00:16;;;;;;;28.77;7.07;;;461.30;1382.40;;;;;;5035084;28;20056;-74
2024/04/01 04:02:42;;;;;;;29.65;7.88;;;461.30;1382.40;;;;;;5034200;28;20510;-76
2024/04/01 04:05:09;;;;;;;33.78;7.63;;;461.30;1382.40;;;;;;5034998;28;20032;-74
2024/04/01 04:07:36;;;;;;;35.17;6.82;;;461.10;1408.00;;;;;;5034787;28;20031;-73
2024/04/01 04:10:03;;;;;;;22.30;6.00;;;461.00;1408.00;;;;;;5016769;28;20038;-74
2024/04/01 04:12:32;;;;;;;34.63;7.00;;;460.90;1408.00;;;;;;5034692;28;20036;-74
2024/04/01 04:15:05;;;;;;;28.67;8.18;;;460.90;1408.00;;;;;;5034566;28;20040;-74
2024/04/01 04:17:31;;;;;;;34.25;7.53;;;460.80;1408.00;;;;;;5034525;28;20041;-74
2024/04/01 04:19:57;;;;;;;34.97;7.20;;;460.80;1408.00;;;;;;5034671;28;20036;-74
2024/04/01 04:22:23;;;;;;;22.33;6.20;;;436.10;1408.00;;;;;;5034739;28;20045;-74
2024/04/01 04:24:49;;;;;;;30.13;6.78;;;436.10;1408.00;;;;;;5034257;28;20107;-74
2024/04/01 04:27:15;;;;;;;30.15;7.38;;;436.10;1408.00;;;;;;5019184;28;20026;-74
2024/04/01 04:29:41;;;;;;;35.03;7.47;;;436.00;1408.00;;;;;;5034477;28;20492;-73
2024/04/01 04:32:12;;;;;;;31.13;5.90;;;436.00;1433.60;;;;;;5016242;28;20033;-73
2024/04/01 04:34:39;;;;;;;31.35;7.10;;;435.90;1433.60;;;;;;5034352;28;20040;-73
2024/04/01 04:37:06;;;;;;;31.40;8.43;;;436.00;1433.60;;;;;;5034207;28;20076;-74
2024/04/01 04:39:35;;;;;;;27.27;6.60;;;436.00;1459.20;;;;;;5034206;28;20056;-73
2024/04/01 04:42:01;;;;;;;25.25;6.13;;;436.00;1459.20;;;;;;5034081;28;20032;-74
2024/04/01 04:44:27;;;;;;;28.75;5.47;;;436.00;1459.20;;;;;;5033848;28;20374;-74
2024/04/01 04:46:54;;;;;;;38.35;7.95;;;436.00;1459.20;;;;;;5034061;28;20076;-73
2024/04/01 04:49:19;;;;;;;34.45;7.05;;;436.00;1459.20;;;;;;5034139;28;20083;-73
2024/04/01 04:51:46;;;;;;;30.10;7.35;;;436.10;1459.20;;;;;;5033674;28;20025;-74
2024/04/01 04:54:12;;;;;;;26.48;6.43;;;436.10;1459.20;;;;;;5033692;28;20494;-73
2024/04/01 04:56:38;;;;;;;28.33;7.63;;;436.10;1459.20;;;;;;5034114;28;20056;-74
2024/04/01 04:59:04;;;;;;;37.60;7.82;;;436.10;1459.20;;;;;;5033722;28;20053;-73
2024/04/01 05:01:32;;;;;;;35.53;6.43;;;436.10;1459.20;;;;;;5033599;28;20486;-74
2024/04/01 05:03:59;;;;;;;23.40;6.20;;;436.10;1459.20;;;;;;5033282;28;20124;-75
2024/04/01 05:06:25;;;;;;;33.55;6.80;;;460.80;1484.80;;;;;;5033499;28;20018;-74
2024/04/01 05:08:50;;;;;;;35.67;6.72;;;460.80;1484.80;;;;;;5032281;28;20033;-74
2024/04/01 05:11:16;;;;;;;30.60;6.88;;;460.80;1484.80;;;;;;5015841;28;20028;-74
2024/04/01 05:13:42;;;;;;;39.50;7.30;;;460.80;1484.80;;;;;;5033055;28;20037;-74
2024/04/01 05:16:08;;;;;;;30.67;5.22;;;460.80;1510.40;;;;;;5033677;28;20425;-74
2024/04/01 05:18:34;;;;;;;27.10;6.57;;;460.80;1510.40;;;;;;5007308;28;20069;-74
2024/04/01 05:21:01;;;;;;;30.20;10.82;;;460.80;1510.40;;;;;;5033297;28;20025;-74
2024/04/01 05:23:27;;;;;;;26.33;6.82;;;460.80;1510.40;;;;;;5033246;28;20382;-74
2024/04/01 05:25:53;;;;;;;24.70;6.70;;;460.80;1510.40;;;;;;5033447;28;20103;-74
2024/04/01 05:28:19;;;;;;;34.08;6.60;;;460.80;1510.40;;;;;;5033453;28;20467;-74
2024/04/01 05:30:50;;;;;;;20.77;5.95;;;460.90;1510.40;;;;;;5033239;28;20388;-73
2024/04/01 05:33:18;;;;;;;16.75;5.57;;;460.90;1510.40;;;;;;5032602;28;20491;-73
2024/04/01 05:35:45;;;;;;;31.98;6.72;;;460.90;1510.40;;;;;;5033316;28;20036;-73
2024/04/01 05:38:11;;;;;;;24.13;6.10;;;460.90;1510.40;;;;;;5032670;28;20030;-74
2024/04/01 05:40:37;;;;;;;33.78;7.30;;;460.90;1510.40;;;;;;5033083;28;20021;-73
2024/04/01 05:43:03;;;;;;;28.13;5.38;;;461.00;1510.40;;;;;;5032574;28;20017;-74
2024/04/01 05:45:29;;;;;;;30.85;6.07;;;461.00;1510.40;;;;;;5014818;28;20033;-73
2024/04/01 05:47:55;;;;;;;28.52;6.65;;;461.10;1484.80;;;;;;5026729;28;20017;-72
2024/04/01 05:50:21;;;;;;;24.73;5.50;;;461.20;1510.40;;;;;;5033160;28;20030;-73
2024/04/01 05:52:46;;;;;;;35.78;6.82;;;461.20;1484.80;;;;;;5028972;28;20067;-73
2024/04/01 05:55:13;;;;;;;23.98;5.63;;;461.30;1484.80;;;;;;5024640;28;20041;-73
2024/04/01 05:57:39;;;;;;;29.77;6.80;;;461.40;1484.80;;;;;;5031895;28;20029;-73
2024/04/01 06:00:06;;;;;;;30.40;5.93;;;461.40;1510.40;;;;;;5027066;28;20032;-74
2024/04/01 06:02:32;;;;;;;30.05;6.38;;;461.50;1484.80;;;;;;5017227;28;20514;-73
2024/04/01 06:04:58;;;;;;;46.97;9.18;;;461.50;1484.80;;;;;;5026309;28;20017;-76
2024/04/01 06:07:26;;;;;;;27.67;5.68;;;461.60;1484.80;;;;;;5031941;28;20503;-73
2024/04/01 06:09:54;;;;;;;22.70;6.03;;;461.70;1510.40;;;;;;5024972;28;20025;-76
2024/04/01 06:12:20;;;;;;;37.97;6.68;;;461.70;1510.40;;;;;;5013649;28;20035;-70
2024/04/01 06:14:46;;;;;;;23.42;5.57;;;486.40;1510.40;;;;;;5034680;28;20463;-72
2024/04/01 06:17:12;;;;;;;21.77;5.82;;;486.40;1484.80;;;;;;5029029;28;20017;-70
2024/04/01 06:19:38;;;;;;;28.92;6.00;;;486.50;1484.80;;;;;;5029419;28;20025;-71
2024/04/01 06:22:04;;;;;;;18.92;6.20;;;486.50;1510.40;;;;;;5030808;28;20017;-76
2024/04/01 06:24:29;;;;;;;22.13;5.68;;;486.70;1484.80;;;;;;5022433;28;20034;-72
2024/04/01 06:26:55;;;;;;;22.58;6.30;;;486.70;1484.80;;;;;;5027947;28;20034;-70
2024/04/01 06:29:21;;;;;;;23.40;6.22;;;486.80;1459.20;;;;;;5027942;28;20030;-71
2024/04/01 06:31:47;;;;;;;25.65;5.85;;;486.90;1459.20;;;;;;5028743;28;20437;-72
2024/04/01 06:34:13;;;;;;;21.27;5.90;;;487.00;1459.20;;;;;;5030819;28;20068;-71
2024/04/01 06:36:39;;;;;;;21.42;5.45;;;487.00;1459.20;;;;;;5034342;28;20029;-72
2024/04/01 06:39:06;;;;;;;28.90;7.25;;;487.00;1459.20;;;;;;5027375;28;20082;-76
2024/04/01 06:41:31;;;;;;;21.55;6.55;;;487.10;1459.20;;;;;;5027048;28;20014;-76
2024/04/01 06:43:57;;;;;;;26.33;5.72;;;487.20;1459.20;;;;;;5029682;28;20028;-77
2024/04/01 06:46:23;;;;;;;22.27;5.22;;;487.30;1459.20;;;;;;5015424;28;20176;-75
2024/04/01 06:48:49;;;;;;;29.77;6.70;;;487.20;1459.20;;;;;;5029218;28;20026;-71
2024/04/01 06:51:15;;;;;;;21.70;5.97;;;487.30;1459.20;;;;;;5031298;28;20022;-72
2024/04/01 06:53:41;;;;;;;25.30;6.07;;;487.30;1459.20;;;;;;5033145;28;20075;-77
2024/04/01 06:56:07;;;;;;;26.85;6.05;;;512.00;1459.20;;;;;;5026830;28;20100;-72
2024/04/01 06:58:33;;;;;;;24.27;4.95;;;512.10;1433.60;;;;;;5023867;28;20026;-72
2024/04/01 07:00:59;;;;;;;20.95;5.07;;;512.30;1459.20;;;;;;5015615;28;20459;-71
2024/04/01 07:03:24;;;;;;;25.02;6.78;;;512.50;1433.60;;;;;;5031062;28;20049;-73
2024/04/01 07:05:50;;;;;;;41.85;10.30;;;512.70;1433.60;;;;;;5026590;28;20080;-71
2024/04/01 07:08:16;;;;;;;26.73;5.78;;;512.90;1459.20;;;;;;5029539;28;20525;-72
2024/04/01 07:10:42;;;;;;;22.77;5.40;;;537.60;1459.20;;;;;;5025304;28;20025;-71
2024/04/01 07:13:08;;;;;;;27.00;6.88;;;537.60;1459.20;;;;;;5028143;28;20028;-74
2024/04/01 07:15:34;;;;;;;27.95;5.50;;;537.60;1433.60;;;;;;5029308;28;20281;-73
2024/04/01 07:18:01;;;;;;;17.25;4.28;;;537.70;1433.60;;;;;;5030086;28;20395;-72
2024/04/01 07:20:26;;;;;;;30.80;8.60;;;537.80;1408.00;;;;;;5030334;28;20029;-72
2024/04/01 07:22:52;;;;;;;32.20;9.20;;;538.00;1408.00;;;;;;5025337;28;20018;-72
2024/04/01 07:25:18;;;;;;;32.42;9.68;;;538.30;1408.00;;;;;;5025685;28;20478;-76
2024/04/01 07:27:44;;;;;;;24.92;7.28;;;538.40;1382.40;;;;;;5023061;28;20101;-71
2024/04/01 07:30:11;;;;;;;30.88;8.40;;;538.50;1382.40;;;;;;5030357;28;20154;-72
2024/04/01 07:32:37;;;;;;;29.27;7.07;;;538.50;1356.80;;;;;;5013333;28;20041;-76
2024/04/01 07:35:07;;;;;;;24.52;8.55;;;538.50;1382.40;;;;;;5030148;28;20471;-73
2024/04/01 07:37:33;;;;;;;29.50;7.28;;;563.20;1408.00;;;;;;5030353;28;20024;-74
2024/04/01 07:39:59;;;;;;;28.90;6.78;;;563.30;1408.00;;;;;;5027680;28;20029;-74
2024/04/01 07:42:25;;;;;;;25.17;5.38;;;563.60;1408.00;;;;;;5032227;28;20026;-72
2024/04/01 07:44:52;;;;;;;30.65;6.10;;;563.80;1382.40;;;;;;5029811;28;20028;-72
2024/04/01 07:47:19;;;;;;;26.23;6.28;;;564.00;1382.40;;;;;;5026668;28;20022;-73
2024/04/01 07:49:48;;;;;;;26.08;6.88;;;588.80;1382.40;;;;;;5030950;28;20529;-72
2024/04/01 07:52:14;;;;;;;30.38;7.53;;;589.20;1356.80;;;;;;5035308;28;20072;-72
2024/04/01 07:54:39;;;;;;;22.38;6.15;;;589.40;1356.80;;;;;;5033288;28;20445;-76
2024/04/01 07:57:06;;;;;;;23.58;6.93;;;589.60;1331.20;;;;;;5030994;28;20026;-77
2024/04/01 07:59:33;;;;;;;25.02;6.82;;;589.70;1331.20;;;;;;5034254;28;20026;-72
2024/04/01 08:02:01;;;;;;;25.30;6.60;;;589.70;1305.60;;;;;;5030910;28;20112;-72
2024/04/01 08:04:29;;;;;;;30.55;6.55;;;589.70;1305.60;;;;;;5024694;28;20033;-72
2024/04/01 08:06:56;;;;;;;30.65;6.57;;;589.70;1280.00;;;;;;5029376;28;20064;-75
2024/04/01 08:09:22;;;;;;;27.17;7.57;;;614.40;1305.60;;;;;;5026871;28;20467;-73
2024/04/01 08:11:51;;;;;;;23.98;6.10;;;614.70;1305.60;;;;;;5030158;28;20225;-73
2024/04/01 08:14:20;;;;;;;27.70;6.95;;;614.80;1254.40;;;;;;5031621;28;20057;-73
2024/04/01 08:16:46;;;;;;;27.83;5.82;;;614.90;1254.40;;;;;;5028866;28;20082;-72
2024/04/01 08:19:15;;;;;;;32.13;7.13;;;614.80;1228.80;;;;;;5032891;28;20029;-72
2024/04/01 08:21:41;;;;;;;30.75;6.05;;;615.00;1254.40;;;;;;5028289;28;20482;-72
2024/04/01 08:24:07;;;;;;;34.83;7.28;;;615.20;1254.40;;;;;;5030378;28;20017;-72
2024/04/01 08:26:33;;;;;;;23.67;6.85;;;640.10;1254.40;;;;;;5037190;28;20033;-72
2024/04/01 08:28:59;;;;;;;28.17;7.22;;;640.10;1177.60;;;;;;5029364;28;20112;-73
2024/04/01 08:31:24;;;;;;;27.40;7.57;;;640.20;1203.20;;;;;;5037728;28;20121;-72
2024/04/01 08:33:50;;;;;;;22.42;7.10;;;640.40;1177.60;;;;;;5031157;28;20491;-75
2024/04/01 08:36:17;;;;;;;31.92;7.75;;;640.70;1228.80;;;;;;5026887;28;20017;-74
2024/04/01 08:38:43;;;;;;;34.83;7.65;;;640.90;1152.00;;;;;;5033045;28;20033;-73
2024/04/01 08:41:18;;;;;;;24.60;6.50;;;665.60;1203.20;;;;;;5033142;28;20018;-72
2024/04/01 08:43:53;;;;;;;41.25;7.15;;;665.70;1152.00;;;;;;5028077;28;20030;-73
2024/04/01 08:46:20;;;;;;;26.83;7.45;;;665.70;1152.00;;;;;;5028078;28;20028;-73
2024/04/01 08:48:50;;;;;;;34.25;6.78;;;666.00;1152.00;;;;;;5027089;28;20021;-73
2024/04/01 08:51:20;;;;;;;26.55;6.35;;;666.00;1152.00;;;;;;5036400;28;20064;-73
2024/04/01 08:54:01;;;;;;;38.20;7.80;;;666.20;1126.40;;;;;;5027114;28;20033;-73
2024/04/01 08:56:28;;;;;;;35.45;8.85;;;666.40;1126.40;;;;;;5040410;28;20556;-73
2024/04/01 08:58:56;;;;;;;42.90;8.75;;;666.50;1100.80;;;;;;5033136;28;20035;-72
2024/04/01 09:01:22;;;;;;;28.90;7.45;;;691.20;1100.80;;;;;;5032266;28;20021;-73
2024/04/01 09:03:48;;;;;;;31.58;8.07;;;691.20;1100.80;;;;;;5021490;28;20053;-77
2024/04/01 09:06:18;;;;;;;33.00;8.63;;;666.40;1100.80;;;;;;5037922;28;20510;-74
2024/04/01 09:08:45;;;;;;;34.38;8.60;;;666.30;1100.80;;;;;;5030585;28;20029;-72
2024/04/01 09:11:11;;;;;;;26.58;7.60;;;666.20;1126.40;;;;;;5033760;28;20029;-73
2024/04/01 09:13:38;;;;;;;32.45;8.10;;;666.00;1100.80;;;;;;5030041;28;20030;-74
2024/04/01 09:16:04;;;;;;;46.70;9.73;;;666.00;1126.40;;;;;;5029434;28;20025;-74
2024/04/01 09:18:36;;;;;;;46.50;7.65;;;666.20;1126.40;;;;;;5024491;28;20018;-72
2024/04/01 09:21:06;;;;;;;33.67;8.65;;;666.30;1100.80;;;;;;5031338;28;20372;-71
2024/04/01 09:23:41;;;;;;;34.75;7.63;;;666.30;1126.40;;;;;;5031501;28;20196;-73
2024/04/01 09:26:08;;;;;;;32.70;8.77;;;666.30;1126.40;;;;;;5029606;28;20014;-72
2024/04/01 09:28:34;;;;;;;37.75;9.05;;;666.50;1126.40;;;;;;5036701;28;20053;-72
2024/04/01 09:31:00;;;;;;;31.42;7.60;;;666.40;1100.80;;;;;;5035922;28;20033;-73
2024/04/01 09:33:26;;;;;;;41.20;8.75;;;666.50;1126.40;;;;;;5034413;28;20049;-78
2024/04/01 09:35:52;;;;;;;43.03;8.73;;;691.20;1126.40;;;;;;5031775;28;20018;-71
2024/04/01 09:38:18;;;;;;;42.15;8.98;;;691.40;1100.80;;;;;;5033461;28;20493;-76
2024/04/01 09:40:51;;;;;;;43.42;8.93;;;691.40;1075.20;;;;;;5030242;28;20014;-72
2024/04/01 09:43:26;;;;;;;32.30;9.13;;;691.70;1049.60;;;;;;5034602;28;20026;-73
2024/04/01 09:45:53;;;;;;;37.92;7.82;;;691.70;1075.20;;;;;;5034879;28;20025;-78
2024/04/01 09:48:24;;;;;;;41.50;9.27;;;691.80;1075.20;;;;;;5027012;28;20471;-75
2024/04/01 09:50:52;;;;;;;38.88;8.25;;;691.90;1049.60;;;;;;5033269;28;20037;-72
2024/04/01 09:53:18;;;;;;;35.33;8.07;;;691.70;1049.60;;;;;;5033969;28;20014;-73
2024/04/01 09:56:19;;;;;;;36.13;7.78;;;691.90;1049.60;;;;;;5033771;28;20029;-72
2024/04/01 09:59:21;;;;;;;29.20;8.32;;;692.10;1075.20;;;;;;4982274;28;20034;-73
2024/04/01 10:02:13;;;;;;;38.75;10.93;;;716.80;1100.80;;;;;;4974482;28;20169;-72
2024/04/01 10:04:51;;;;;;;50.55;11.32;;;716.80;1075.20;;;;;;4979222;28;20433;-74
2024/04/01 10:07:53;;;;;;;43.83;9.40;;;716.80;1075.20;;;;;;4983786;28;20030;-73
2024/04/01 10:11:07;;;;;;;32.58;9.05;;;717.00;1075.20;;;;;;4995406;28;20635;-73
2024/04/01 10:14:27;;;;;;;40.72;10.85;;;717.40;1024.00;;;;;;4991306;28;20500;-77
2024/04/01 10:17:27;;;;;;;42.80;10.15;;;717.70;1024.00;;;;;;4988739;28;20047;-72
2024/04/01 10:20:56;;;;;;;45.85;9.80;;;717.50;998.40;;;;;;4979211;28;20033;-71
2024/04/01 10:23:52;;;;;;;44.08;9.30;;;717.70;1024.00;;;;;;4917510;29;20557;-74
2024/04/01 10:26:58;;;;;;;39.00;9.85;;;717.70;1024.00;;;;;;4914784;29;20032;-73
2024/04/01 10:29:50;;;;;;;48.05;10.65;;;717.70;1024.00;;;;;;4914969;29;20062;-73
2024/04/01 10:32:53;;;;;;;39.60;10.15;;;742.50;1024.00;;;;;;4918759;29;20397;-72
2024/04/01 10:35:24;;;;;;;37.38;9.35;;;742.40;1024.00;;;;;;4923547;29;20098;-77
2024/04/01 10:38:22;;;;;;;36.47;9.93;;;742.60;1049.60;;;;;;4930249;29;20226;-78
2024/04/01 10:41:21;;;;;;;35.22;8.50;;;742.70;1024.00;;;;;;4873940;29;20054;-74
2024/04/01 10:44:20;;;;;;;32.35;8.77;;;742.60;1024.00;;;;;;4857333;29;20043;-72
2024/04/01 10:47:09;;;;;;;41.42;9.88;;;742.50;1024.00;;;;;;4875693;29;20120;-72
2024/04/01 10:50:31;;;;;;;43.55;11.48;;;742.60;1024.00;;;;;;4876411;29;20490;-73
2024/04/01 10:53:15;;;;;;;46.45;11.15;;;742.60;1024.00;;;;;;4836678;29;20075;-73
2024/04/01 10:56:05;;;;;;;47.90;11.38;;;742.60;1024.00;;;;;;4839844;29;20038;-73
2024/04/01 10:59:08;;;;;;;45.83;10.63;;;742.80;998.40;;;;;;4893657;29;20161;-73
2024/04/01 11:02:10;;;;;;;47.13;10.63;;;742.70;1049.60;;;;;;4895469;29;20091;-73
2024/04/01 11:04:48;;;;;;;47.90;9.88;;;742.80;998.40;;;;;;4895847;29;20519;-74
2024/04/01 11:07:37;;;;;;;48.08;10.70;;;742.60;998.40;;;;;;4895864;29;20041;-74
2024/04/01 11:10:34;;;;;;;37.03;11.90;;;743.00;998.40;;;;;;4899239;29;20163;-75
2024/04/01 11:13:04;;;;;;;;;;;743.10;998.40;;;;;;4899594;29;20032;-77
2024/04/01 11:15:29;;;;;;;45.65;12.95;;;743.00;998.40;;;;;;4894492;29;20285;-74
2024/04/01 11:18:16;;;;;;;46.70;12.38;;;742.90;998.40;;;;;;4946081;28;20115;-77
2024/04/01 11:20:49;;;;;;;54.03;11.98;;;743.10;972.80;;;;;;4956301;28;20031;-78
2024/04/01 11:23:38;;;;;;;42.10;12.38;;;743.00;998.40;;;;;;4980464;28;20037;-74
2024/04/01 11:26:38;;;;;;;61.92;12.73;;;742.90;972.80;;;;;;5023920;28;20408;-72
2024/04/01 11:29:07;;;;;;;56.08;14.93;;;743.10;972.80;;;;;;5036853;28;20040;-73
2024/04/01 11:31:34;;;;;;;58.90;13.38;;;743.30;947.20;;;;;;5028763;28;20061;-72
2024/04/01 11:34:08;;;;;;;55.70;12.25;;;743.20;921.60;;;;;;5031554;28;20084;-77
2024/04/01 11:36:46;;;;;;;47.78;12.40;;;743.20;972.80;;;;;;5034034;28;20030;-74
2024/04/01 11:39:16;;;;;;;60.17;12.65;;;743.20;947.20;;;;;;5014855;28;20096;-76
2024/04/01 11:41:47;;;;;;;54.92;12.07;;;743.20;921.60;;;;;;5033846;28;20045;-72
2024/04/01 11:44:22;;;;;;;47.67;12.27;;;743.20;921.60;;;;;;5022715;28;20108;-71
2024/04/01 11:46:50;;;;;;;48.30;13.40;;;743.10;921.60;;;;;;5028262;28;20025;-76
2024/04/01 11:49:16;;;;;;;52.22;12.93;;;743.20;947.20;;;;;;5032070;28;20033;-74
2024/04/01 11:51:42;;;;;;;48.80;11.57;;;743.30;921.60;;;;;;5034818;28;20101;-73
2024/04/01 11:54:08;;;;;;;48.72;11.52;;;743.30;921.60;;;;;;5026172;28;20116;-77
2024/04/01 11:56:42;;;;;;;51.92;12.35;;;743.30;921.60;;;;;;5025877;28;20489;-76
2024/04/01 11:59:11;;;;;;;51.05;11.70;;;743.30;921.60;;;;;;5029851;28;20104;-73
2024/04/01 12:01:41;;;;;;;46.40;11.13;;;768.00;896.00;;;;;;5026221;28;20085;-72
2024/04/01 12:04:17;;;;;;;54.15;12.55;;;768.20;921.60;;;;;;5027555;28;20054;-74
2024/04/01 12:06:43;;;;;;;50.90;11.90;;;768.40;921.60;;;;;;5029764;28;20030;-74
2024/04/01 12:09:12;;;;;;;42.40;11.07;;;768.30;896.00;;;;;;5020934;28;20088;-73
2024/04/01 12:11:42;;;;;;;48.80;11.95;;;768.30;870.40;;;;;;5032642;28;20040;-73
2024/04/01 12:14:10;;;;;;;49.15;12.57;;;768.30;870.40;;;;;;5033799;28;20038;-76
2024/04/01 12:16:39;;;;;;;62.25;12.15;;;768.30;921.60;;;;;;5030105;28;20049;-73
2024/04/01 12:19:08;;;;;;;57.33;11.82;;;768.30;896.00;;;;;;5031116;28;20035;-72
2024/04/01 12:21:35;;;;;;;42.13;11.07;;;768.40;921.60;;;;;;5038182;28;20024;-75
2024/04/01 12:24:04;;;;;;;73.50;13.30;;;768.30;844.80;;;;;;5030463;28;20021;-73
2024/04/01 12:26:37;;;;;;;36.15;11.77;;;768.40;844.80;;;;;;5028360;28;20401;-73
2024/04/01 12:29:03;;;;;;;40.53;10.07;;;768.40;870.40;;;;;;5029049;28;20475;-75